Troy, North Carolina
Current Conditions -  °F | °C
As of 7:35 AM on Monday 24 Nov 2014 (Local Time) from KVUJ Reporting Station
Scattered Clouds Scattered Clouds  
Wind Chill: 58°   Ceiling: Unl
Heat Index: 58°   Visibility: 10mi
Dew Point: 58°   Wind: 6mph
Humidity: 97%   Direction: 200°SSW
Pressure: 29.84"   Gusts: NA
Location:  35.36°N, 79.89°W
Report Text: KVUJ 241235Z AUTO 20005KT 10SM SCT033 15/14 A2984 RMK AO2 LTG DSNT E T01470143
Loading
Personal Weather Stations






























Interactive Weather Map New forecast layout! Learn more

10-Day Weather Forecast

Advertisements
Track Severe Weather on mobile